createdAt,value
2018-05-26T00:00:36.355Z,17.43
2018-05-26T00:03:06.706Z,17.49
2018-05-26T00:05:36.703Z,17.45
2018-05-26T00:08:06.434Z,17.49
2018-05-26T00:10:36.186Z,17.54
2018-05-26T00:13:12.979Z,17.55
2018-05-26T00:15:45.327Z,17.53
2018-05-26T00:18:14.924Z,17.58
2018-05-26T00:20:44.554Z,17.60
2018-05-26T00:23:15.088Z,17.52
2018-05-26T00:25:45.607Z,17.47
2018-05-26T00:28:15.128Z,17.45
2018-05-26T00:30:45.549Z,17.45
2018-05-26T00:33:15.077Z,17.57
2018-05-26T00:35:46.798Z,17.61
2018-05-26T00:38:16.932Z,17.67
2018-05-26T00:40:47.269Z,17.61
2018-05-26T00:43:17.183Z,17.58
2018-05-26T00:45:48.103Z,17.61
2018-05-26T00:48:17.745Z,17.71
2018-05-26T00:50:47.299Z,17.64
2018-05-26T00:53:16.976Z,17.55
2018-05-26T00:55:47.292Z,17.52
2018-05-26T00:58:17.541Z,17.53
2018-05-26T01:00:47.738Z,17.54
2018-05-26T01:03:20.225Z,17.52
2018-05-26T01:05:54.611Z,17.54
2018-05-26T01:08:24.179Z,17.60
2018-05-26T01:10:53.771Z,17.53
2018-05-26T01:13:24.205Z,17.54
2018-05-26T01:15:53.857Z,17.56
2018-05-26T01:18:23.451Z,17.60
2018-05-26T01:20:53.808Z,17.57
2018-05-26T01:23:23.696Z,17.41
2018-05-26T01:25:53.361Z,17.29
2018-05-26T01:28:22.993Z,17.21
2018-05-26T01:30:52.492Z,17.18
2018-05-26T01:33:22.136Z,17.19
2018-05-26T01:35:51.684Z,17.12
2018-05-26T01:38:21.915Z,17.07
2018-05-26T01:40:51.491Z,17.07
2018-05-26T01:43:21.152Z,16.95
2018-05-26T01:45:50.663Z,16.92
2018-05-26T01:48:20.356Z,16.93
2018-05-26T01:50:50.326Z,16.93
2018-05-26T01:53:20.546Z,16.95
2018-05-26T01:55:50.252Z,16.88
2018-05-26T01:58:20.126Z,16.87
2018-05-26T02:00:49.991Z,16.84
2018-05-26T02:03:20.777Z,16.85
2018-05-26T02:05:51.114Z,16.95
2018-05-26T02:08:20.955Z,17.00
2018-05-26T02:10:50.499Z,17.02
2018-05-26T02:13:20.091Z,17.05
2018-05-26T02:15:49.610Z,17.02
2018-05-26T02:18:19.979Z,16.89
2018-05-26T02:20:49.924Z,16.64
2018-05-26T02:23:19.531Z,16.46
2018-05-26T02:25:49.275Z,16.41
2018-05-26T02:28:19.945Z,16.47
2018-05-26T02:30:49.469Z,16.49
2018-05-26T02:33:19.062Z,16.43
2018-05-26T02:35:48.758Z,16.38
2018-05-26T02:38:18.617Z,16.35
2018-05-26T02:40:48.205Z,16.29
2018-05-26T02:43:17.823Z,16.22
2018-05-26T02:45:47.432Z,16.28
2018-05-26T02:48:18.668Z,16.23
2018-05-26T02:50:48.304Z,16.15
2018-05-26T02:53:18.844Z,16.27
2018-05-26T02:55:48.400Z,16.30
2018-05-26T02:58:18.131Z,16.46
2018-05-26T03:00:51.497Z,16.66
2018-05-26T03:03:21.177Z,16.64
2018-05-26T03:05:56.917Z,16.48
2018-05-26T03:08:35.077Z,16.41
2018-05-26T03:11:11.185Z,16.44
2018-05-26T03:13:46.201Z,16.43
2018-05-26T03:16:21.943Z,16.43
2018-05-26T03:18:51.502Z,16.47
2018-05-26T03:21:21.146Z,16.53
2018-05-26T03:23:50.759Z,16.60
2018-05-26T03:26:20.268Z,16.57
2018-05-26T03:28:49.775Z,16.56
2018-05-26T03:31:19.377Z,16.61
2018-05-26T03:33:49.024Z,16.57
2018-05-26T03:36:18.551Z,16.61
2018-05-26T03:38:51.688Z,16.62
2018-05-26T03:41:25.896Z,16.55
2018-05-26T03:43:55.544Z,16.53
2018-05-26T03:46:25.060Z,16.48
2018-05-26T03:48:54.741Z,16.42
2018-05-26T03:51:24.239Z,16.40
2018-05-26T03:53:53.889Z,16.44
2018-05-26T03:56:41.389Z,16.55
2018-05-26T04:02:13.063Z,16.86
2018-05-26T04:04:42.581Z,16.97
2018-05-26T04:07:13.110Z,17.17
2018-05-26T04:09:42.738Z,17.37
2018-05-26T04:12:17.814Z,17.28
2018-05-26T04:14:48.177Z,17.32
2018-05-26T04:17:17.822Z,17.50
2018-05-26T04:19:48.316Z,17.67
2018-05-26T04:22:18.391Z,17.87
2018-05-26T04:24:48.143Z,18.21
2018-05-26T04:27:17.660Z,18.55
2018-05-26T04:29:48.092Z,18.90
2018-05-26T04:32:18.493Z,19.28
2018-05-26T04:34:48.269Z,19.60
2018-05-26T04:37:17.958Z,19.86
2018-05-26T04:39:47.576Z,20.18
2018-05-26T04:42:18.277Z,20.52
2018-05-26T04:44:47.976Z,20.70
2018-05-26T04:47:17.659Z,20.77
2018-05-26T04:49:47.408Z,20.74
2018-05-26T04:52:16.909Z,20.66
2018-05-26T04:54:46.422Z,20.61
2018-05-26T04:57:16.124Z,20.80
2018-05-26T04:59:45.620Z,21.17
2018-05-26T05:02:15.137Z,21.58
2018-05-26T05:04:45.005Z,21.92
2018-05-26T05:07:15.587Z,22.27
2018-05-26T05:09:46.010Z,22.67
2018-05-26T05:12:15.795Z,23.08
2018-05-26T05:14:45.521Z,23.44
2018-05-26T05:17:16.551Z,23.64
2018-05-26T05:19:49.878Z,23.98
2018-05-26T05:22:19.591Z,24.08
2018-05-26T05:24:55.960Z,23.78
2018-05-26T05:27:26.100Z,23.76
2018-05-26T05:29:55.731Z,23.81
2018-05-26T05:32:26.144Z,23.82
2018-05-26T05:34:56.453Z,23.73
2018-05-26T05:37:26.022Z,23.62
2018-05-26T05:39:55.543Z,23.73
2018-05-26T05:42:25.396Z,23.78
2018-05-26T05:44:55.680Z,24.18
2018-05-26T05:47:25.402Z,24.43
2018-05-26T05:49:55.207Z,24.69
2018-05-26T05:52:24.695Z,25.05
2018-05-26T05:54:54.175Z,25.30
2018-05-26T05:57:23.711Z,25.71
2018-05-26T05:59:53.346Z,26.16
2018-05-26T06:02:22.872Z,26.80
2018-05-26T06:04:52.447Z,27.32
2018-05-26T06:07:22.080Z,27.93
2018-05-26T06:09:52.589Z,28.40
2018-05-26T06:12:22.176Z,28.70
2018-05-26T06:14:51.735Z,28.62
2018-05-26T06:17:21.370Z,28.25
2018-05-26T06:19:50.981Z,28.37
2018-05-26T06:22:20.485Z,28.96
2018-05-26T06:24:50.798Z,28.95
2018-05-26T06:27:21.177Z,28.75
2018-05-26T06:29:50.853Z,28.86
2018-05-26T06:32:20.865Z,29.62
2018-05-26T06:34:50.586Z,30.19
2018-05-26T06:37:20.227Z,30.16
2018-05-26T06:39:49.717Z,30.75
2018-05-26T06:42:19.461Z,30.73
2018-05-26T06:44:49.003Z,30.91
2018-05-26T06:47:18.626Z,31.02
2018-05-26T06:49:48.373Z,31.18
2018-05-26T06:52:18.078Z,31.34
2018-05-26T06:54:47.546Z,31.50
2018-05-26T06:57:17.916Z,31.55
2018-05-26T06:59:47.524Z,31.37
2018-05-26T07:02:17.023Z,31.25
2018-05-26T07:04:47.556Z,31.36
2018-05-26T07:07:17.178Z,30.95
2018-05-26T07:09:47.163Z,31.65
2018-05-26T07:12:25.761Z,31.96
2018-05-26T07:15:02.699Z,32.05
2018-05-26T07:17:32.379Z,32.21
2018-05-26T07:20:03.762Z,32.89
2018-05-26T07:22:34.753Z,32.98
2018-05-26T07:25:04.524Z,33.03
2018-05-26T07:27:34.402Z,33.64
2018-05-26T07:30:07.014Z,34.09
2018-05-26T07:32:36.684Z,34.37
2018-05-26T07:35:06.602Z,33.72
2018-05-26T07:37:36.143Z,33.55
2018-05-26T07:40:05.939Z,33.51
2018-05-26T07:42:35.544Z,32.36
2018-05-26T07:45:05.109Z,32.90
2018-05-26T07:47:35.404Z,33.60
2018-05-26T07:50:05.776Z,34.28
2018-05-26T07:52:35.482Z,34.04
2018-05-26T07:55:05.096Z,34.86
2018-05-26T07:57:34.647Z,34.90
2018-05-26T08:00:04.455Z,35.33
2018-05-26T08:02:37.282Z,35.53
2018-05-26T08:05:06.987Z,35.46
2018-05-26T08:07:36.503Z,35.67
2018-05-26T08:10:13.238Z,35.86
2018-05-26T08:12:44.050Z,35.63
2018-05-26T08:15:17.079Z,35.30
2018-05-26T08:17:47.364Z,35.63
2018-05-26T08:20:20.391Z,35.45
2018-05-26T08:22:50.692Z,36.03
2018-05-26T08:25:20.289Z,36.16
2018-05-26T08:27:49.820Z,36.13
2018-05-26T08:30:22.495Z,36.07
2018-05-26T08:32:52.052Z,35.69
2018-05-26T08:35:22.168Z,34.88
2018-05-26T08:37:51.700Z,35.01
2018-05-26T08:40:22.839Z,35.00
2018-05-26T08:42:52.623Z,35.18
2018-05-26T08:45:24.147Z,35.32
2018-05-26T08:47:55.790Z,36.13
2018-05-26T08:50:26.143Z,36.51
2018-05-26T08:52:56.196Z,35.50
2018-05-26T08:55:26.089Z,35.62
2018-05-26T08:57:56.387Z,35.99
2018-05-26T09:00:26.060Z,36.64
2018-05-26T09:02:55.534Z,36.68
2018-05-26T09:05:25.789Z,36.77
2018-05-26T09:07:55.492Z,36.37
2018-05-26T09:10:25.256Z,36.15
2018-05-26T09:12:55.772Z,36.57
2018-05-26T09:15:25.461Z,36.75
2018-05-26T09:17:55.961Z,37.16
2018-05-26T09:20:26.129Z,37.29
2018-05-26T09:22:55.632Z,37.52
2018-05-26T09:25:25.192Z,37.09
2018-05-26T09:27:54.624Z,37.09
2018-05-26T09:30:24.139Z,37.40
2018-05-26T09:32:54.659Z,36.92
2018-05-26T09:35:24.440Z,35.73
2018-05-26T09:37:54.175Z,36.14
2018-05-26T09:40:23.711Z,36.80
2018-05-26T09:42:53.288Z,36.35
2018-05-26T09:45:22.766Z,36.32
2018-05-26T09:47:53.168Z,36.57
2018-05-26T09:50:22.805Z,36.24
2018-05-26T09:52:52.291Z,35.27
2018-05-26T09:55:22.610Z,34.71
2018-05-26T09:57:53.508Z,34.68
2018-05-26T10:00:23.293Z,35.10
2018-05-26T10:02:52.840Z,35.24
2018-05-26T10:05:22.642Z,34.61
2018-05-26T10:07:52.315Z,34.98
2018-05-26T10:10:22.670Z,35.19
2018-05-26T10:12:52.396Z,35.20
2018-05-26T10:15:21.881Z,36.03
2018-05-26T10:17:51.492Z,36.58
2018-05-26T10:20:22.295Z,36.86
2018-05-26T10:22:52.590Z,37.04
2018-05-26T10:25:22.164Z,37.16
2018-05-26T10:27:51.744Z,37.41
2018-05-26T10:30:22.148Z,37.15
2018-05-26T10:32:52.443Z,36.13
2018-05-26T10:35:22.043Z,36.57
2018-05-26T10:37:51.597Z,37.04
2018-05-26T10:40:22.545Z,37.09
2018-05-26T10:42:52.088Z,36.99
2018-05-26T10:45:38.179Z,36.98
2018-05-26T10:48:07.678Z,37.11
2018-05-26T10:50:37.290Z,37.35
2018-05-26T10:53:06.760Z,37.28
2018-05-26T10:55:36.254Z,37.44
2018-05-26T10:58:05.800Z,36.77
2018-05-26T11:00:36.226Z,36.65
2018-05-26T11:03:06.434Z,37.27
2018-05-26T11:05:37.837Z,36.64
2018-05-26T11:08:07.409Z,37.33
2018-05-26T11:10:37.647Z,36.54
2018-05-26T11:13:07.470Z,36.67
2018-05-26T11:15:36.977Z,37.00
2018-05-26T11:18:06.513Z,37.24
2018-05-26T11:20:36.095Z,37.30
2018-05-26T11:23:05.818Z,36.78
2018-05-26T11:25:35.504Z,36.44
2018-05-26T11:28:05.052Z,35.33
2018-05-26T11:30:34.921Z,34.85
2018-05-26T11:33:05.134Z,35.15
2018-05-26T11:35:35.396Z,35.51
2018-05-26T11:38:05.081Z,35.46
2018-05-26T11:40:34.700Z,35.21
2018-05-26T11:43:04.548Z,34.66
2018-05-26T11:45:34.002Z,34.22
2018-05-26T11:48:19.183Z,34.22
2018-05-26T11:50:48.619Z,34.01
2018-05-26T11:53:18.545Z,33.81
2018-05-26T11:55:48.000Z,33.50
2018-05-26T11:58:17.928Z,33.38
2018-05-26T12:00:53.473Z,33.22
2018-05-26T12:03:23.619Z,33.06
2018-05-26T12:05:53.109Z,32.94
2018-05-26T12:08:23.224Z,32.59
2018-05-26T12:10:52.856Z,32.19
2018-05-26T12:13:22.338Z,32.09
2018-05-26T12:15:51.808Z,31.79
2018-05-26T12:18:22.160Z,31.92
2018-05-26T12:20:51.653Z,31.87
2018-05-26T12:23:21.885Z,31.83
2018-05-26T12:25:51.498Z,31.73
2018-05-26T12:28:20.958Z,31.73
2018-05-26T12:30:50.485Z,31.71
2018-05-26T12:33:20.849Z,30.74
2018-05-26T12:35:50.299Z,30.87
2018-05-26T12:38:19.833Z,31.31
2018-05-26T12:40:50.054Z,31.20
2018-05-26T12:43:20.418Z,31.33
2018-05-26T12:45:49.850Z,31.58
2018-05-26T12:48:19.457Z,31.76
2018-05-26T12:50:48.922Z,31.53
2018-05-26T12:53:18.580Z,31.47
2018-05-26T13:05:53.083Z,31.78
2018-05-26T13:08:55.806Z,31.90
2018-05-26T13:13:32.566Z,31.88
2018-05-26T13:16:02.815Z,32.16
2018-05-26T13:18:32.520Z,31.90
2018-05-26T13:21:02.530Z,31.60
2018-05-26T13:26:43.704Z,30.95
2018-05-26T13:29:29.723Z,30.70
2018-05-26T13:32:00.082Z,30.66
2018-05-26T13:34:29.548Z,30.58
2018-05-26T13:37:00.193Z,30.08
2018-05-26T13:39:29.831Z,30.08
2018-05-26T13:41:59.341Z,29.86
2018-05-26T13:44:29.532Z,29.86
2018-05-26T13:46:59.258Z,30.08
2018-05-26T13:49:29.926Z,30.20
2018-05-26T13:52:00.724Z,30.29
2018-05-26T13:54:34.779Z,30.53
2018-05-26T13:57:07.442Z,30.57
2018-05-26T13:59:37.116Z,30.61
2018-05-26T14:02:07.488Z,30.40
2018-05-26T14:04:38.980Z,30.33
2018-05-26T14:07:13.366Z,29.99
2018-05-26T14:10:00.412Z,29.74
2018-05-26T14:12:29.995Z,29.53
2018-05-26T14:15:00.406Z,29.21
2018-05-26T14:17:30.087Z,28.99
2018-05-26T14:19:59.907Z,29.24
2018-05-26T14:22:29.464Z,29.47
2018-05-26T14:25:00.042Z,29.68
2018-05-26T14:27:29.569Z,29.78
2018-05-26T14:30:00.475Z,29.83
2018-05-26T14:32:30.033Z,29.77
2018-05-26T14:35:02.161Z,29.72
2018-05-26T14:37:31.946Z,29.72
2018-05-26T14:40:01.940Z,29.72
2018-05-26T14:42:32.216Z,29.51
2018-05-26T14:45:02.119Z,29.46
2018-05-26T14:47:31.677Z,29.27
2018-05-26T14:50:02.642Z,29.19
2018-05-26T14:52:32.281Z,29.02
2018-05-26T14:55:02.238Z,29.19
2018-05-26T14:57:32.469Z,29.18
2018-05-26T15:00:03.227Z,29.20
2018-05-26T15:02:32.753Z,29.22
2018-05-26T15:05:02.608Z,29.21
2018-05-26T15:07:32.083Z,29.19
2018-05-26T15:10:02.146Z,29.15
2018-05-26T15:12:32.669Z,29.02
2018-05-26T15:15:02.703Z,28.95
2018-05-26T15:17:32.969Z,28.90
2018-05-26T15:20:02.881Z,28.92
2018-05-26T15:22:32.341Z,28.92
2018-05-26T15:25:02.314Z,28.87
2018-05-26T15:27:32.805Z,28.80
2018-05-26T15:30:02.810Z,28.77
2018-05-26T15:32:32.296Z,28.76
2018-05-26T15:35:02.373Z,28.78
2018-05-26T15:37:31.826Z,28.71
2018-05-26T15:40:02.083Z,28.68
2018-05-26T15:42:31.748Z,28.66
2018-05-26T15:45:01.831Z,28.64
2018-05-26T15:47:31.332Z,28.62
2018-05-26T15:50:01.259Z,28.59
2018-05-26T15:52:30.935Z,28.54
2018-05-26T15:55:01.635Z,28.49
2018-05-26T15:57:31.124Z,28.46
2018-05-26T16:00:01.011Z,28.42
2018-05-26T16:02:30.587Z,28.43
2018-05-26T16:05:00.492Z,28.43
2018-05-26T16:07:30.756Z,28.42
2018-05-26T16:10:00.773Z,28.38
2018-05-26T16:12:30.415Z,28.38
2018-05-26T16:15:00.372Z,28.36
2018-05-26T16:17:29.903Z,28.38
2018-05-26T16:19:59.857Z,28.29
2018-05-26T16:22:29.446Z,28.21
2018-05-26T16:24:58.944Z,28.23
2018-05-26T16:27:28.536Z,28.16
2018-05-26T16:29:57.993Z,28.08
2018-05-26T16:32:27.674Z,28.00
2018-05-26T16:34:57.151Z,27.90
2018-05-26T16:37:26.683Z,27.87
2018-05-26T16:39:56.405Z,27.86
2018-05-26T16:42:25.878Z,27.87
2018-05-26T16:44:55.393Z,27.77
2018-05-26T16:47:24.840Z,27.72
2018-05-26T16:56:25.287Z,27.56
2018-05-26T16:58:54.965Z,27.53
2018-05-26T17:01:26.320Z,27.53
2018-05-26T17:03:56.379Z,27.51
2018-05-26T17:07:46.674Z,27.46
2018-05-26T17:10:17.677Z,27.49
2018-05-26T17:12:47.253Z,27.55
2018-05-26T17:15:16.776Z,27.51
2018-05-26T17:17:48.169Z,27.43
2018-05-26T17:20:19.170Z,27.39
2018-05-26T17:22:48.924Z,27.35
2018-05-26T17:25:18.612Z,27.30
2018-05-26T17:27:48.212Z,27.20
2018-05-26T17:30:19.726Z,27.15
2018-05-26T17:32:49.271Z,27.02
2018-05-26T17:35:21.771Z,26.98
2018-05-26T17:37:51.379Z,26.87
2018-05-26T17:40:20.863Z,26.77
2018-05-26T17:42:50.381Z,26.79
2018-05-26T17:45:19.848Z,26.75
2018-05-26T17:47:50.185Z,26.73
2018-05-26T17:50:20.536Z,26.68
2018-05-26T17:52:51.834Z,26.68
2018-05-26T17:55:21.823Z,26.65
2018-05-26T17:57:51.296Z,26.54
2018-05-26T18:00:20.906Z,26.56
2018-05-26T18:02:50.559Z,26.48
2018-05-26T18:05:20.163Z,26.34
2018-05-26T18:07:49.728Z,26.22
2018-05-26T18:10:20.631Z,26.08
2018-05-26T18:12:50.962Z,25.94
2018-05-26T18:15:20.775Z,25.89
2018-05-26T18:17:51.262Z,25.83
2018-05-26T18:20:22.184Z,25.77
2018-05-26T18:22:51.866Z,25.79
2018-05-26T18:25:22.125Z,25.62
2018-05-26T18:27:51.595Z,25.46
2018-05-26T18:30:21.962Z,25.35
2018-05-26T18:32:51.800Z,25.25
2018-05-26T18:35:23.484Z,25.18
2018-05-26T18:37:53.970Z,25.03
2018-05-26T18:40:25.908Z,24.85
2018-05-26T18:42:55.515Z,24.76
2018-05-26T18:45:25.225Z,24.72
2018-05-26T18:47:54.828Z,24.83
2018-05-26T18:50:55.288Z,24.93
2018-05-26T18:53:30.564Z,24.63
2018-05-26T18:56:02.154Z,24.47
2018-05-26T18:58:31.661Z,24.41
2018-05-26T19:01:01.459Z,24.61
2018-05-26T19:03:31.218Z,24.50
2018-05-26T19:06:01.254Z,24.29
2018-05-26T19:08:30.727Z,24.19
2018-05-26T19:11:01.000Z,24.40
2018-05-26T19:13:32.267Z,24.41
2018-05-26T19:16:03.079Z,24.56
2018-05-26T19:18:34.809Z,24.60
2018-05-26T19:21:04.604Z,24.88
2018-05-26T19:23:34.281Z,24.87
2018-05-26T19:26:03.816Z,24.77
2018-05-26T19:28:38.428Z,24.60
2018-05-26T19:31:09.911Z,24.57
2018-05-26T19:33:39.622Z,24.55
2018-05-26T19:36:09.298Z,24.48
2018-05-26T19:38:39.183Z,24.40
2018-05-26T19:41:08.869Z,24.23
2018-05-26T19:43:38.340Z,24.33
2018-05-26T19:46:09.124Z,24.29
2018-05-26T19:48:39.379Z,24.18
2018-05-26T19:51:09.752Z,24.15
2018-05-26T19:53:39.250Z,24.23
2018-05-26T19:56:09.864Z,24.23
2018-05-26T19:58:40.181Z,24.34
2018-05-26T20:01:10.734Z,24.27
2018-05-26T20:03:40.291Z,24.33
2018-05-26T20:06:10.777Z,24.29
2018-05-26T20:08:40.466Z,24.27
2018-05-26T20:11:10.198Z,24.28
2018-05-26T20:13:39.749Z,24.14
2018-05-26T20:16:10.016Z,24.05
2018-05-26T20:18:40.573Z,24.05
2018-05-26T20:21:11.043Z,23.74
2018-05-26T20:23:40.801Z,23.60
2018-05-26T20:26:10.817Z,23.54
2018-05-26T20:28:41.433Z,23.41
2018-05-26T20:31:10.912Z,23.59
2018-05-26T20:33:41.217Z,23.55
2018-05-26T20:36:10.894Z,23.74
2018-05-26T20:38:41.631Z,23.49
2018-05-26T20:41:11.336Z,23.30
2018-05-26T20:43:40.871Z,22.98
2018-05-26T20:46:10.509Z,23.11
2018-05-26T20:48:40.752Z,22.95
2018-05-26T20:51:10.303Z,22.70
2018-05-26T20:53:44.281Z,22.75
2018-05-26T20:56:15.745Z,22.90
2018-05-26T20:58:45.498Z,22.89
2018-05-26T21:01:16.691Z,22.84
2018-05-26T21:03:47.953Z,22.60
2018-05-26T21:06:17.551Z,22.44
2018-05-26T21:08:57.841Z,22.25
2018-05-26T21:11:29.105Z,22.15
2018-05-26T21:14:00.823Z,21.95
2018-05-26T21:16:32.373Z,21.80
2018-05-26T21:19:04.042Z,21.63
2018-05-26T21:21:33.838Z,21.47
2018-05-26T21:24:03.803Z,21.43
2018-05-26T21:26:36.560Z,21.31
2018-05-26T21:29:20.374Z,21.54
2018-05-26T21:31:53.773Z,21.48
2018-05-26T21:34:23.713Z,21.40
2018-05-26T21:36:54.249Z,21.23
2018-05-26T21:39:24.959Z,21.09
2018-05-26T21:41:55.281Z,21.08
2018-05-26T21:44:24.808Z,21.10
2018-05-26T21:46:54.362Z,21.05
2018-05-26T21:49:23.868Z,20.91
2018-05-26T21:51:54.844Z,21.01
2018-05-26T21:54:24.639Z,20.86
2018-05-26T21:56:54.317Z,20.82
2018-05-26T21:59:23.911Z,20.72
2018-05-26T22:02:06.949Z,20.75
2018-05-26T22:04:38.402Z,20.83
2018-05-26T22:07:07.904Z,20.77
2018-05-26T22:09:38.497Z,20.66
2018-05-26T22:12:08.779Z,20.88
2018-05-26T22:14:38.311Z,20.79
2018-05-26T22:17:10.816Z,20.75
2018-05-26T22:19:40.617Z,20.89
2018-05-26T22:22:10.340Z,21.45
2018-05-26T22:24:40.283Z,21.67
2018-05-26T22:27:10.589Z,21.50
2018-05-26T22:29:40.882Z,21.17
2018-05-26T22:32:10.773Z,21.03
2018-05-26T22:34:41.140Z,21.01
2018-05-26T22:37:11.975Z,20.96
2018-05-26T22:39:41.442Z,20.90
2018-05-26T22:42:11.071Z,20.97
2018-05-26T22:44:40.682Z,21.00
2018-05-26T22:47:10.217Z,20.87
2018-05-26T22:49:39.997Z,20.76
2018-05-26T22:52:09.622Z,20.85
2018-05-26T22:54:39.336Z,20.75
2018-05-26T22:57:08.832Z,20.62
2018-05-26T22:59:38.386Z,20.81
2018-05-26T23:02:08.794Z,20.85
2018-05-26T23:04:38.394Z,20.61
2018-05-26T23:07:08.204Z,20.26
2018-05-26T23:09:38.316Z,19.83
2018-05-26T23:16:01.221Z,19.34
2018-05-26T23:18:32.446Z,19.20
2018-05-26T23:21:02.623Z,19.20
2018-05-26T23:23:32.157Z,19.21
2018-05-26T23:26:03.121Z,19.11
2018-05-26T23:28:34.697Z,18.93
2018-05-26T23:31:08.691Z,18.62
2018-05-26T23:33:45.717Z,18.39
2018-05-26T23:36:16.144Z,18.22
2018-05-26T23:38:45.860Z,18.09
2018-05-26T23:41:15.495Z,17.99
2018-05-26T23:43:46.341Z,17.97
2018-05-26T23:46:15.923Z,17.95
2018-05-26T23:48:45.715Z,17.87
2018-05-26T23:51:15.324Z,17.85
2018-05-26T23:53:44.929Z,17.89
2018-05-26T23:56:16.343Z,18.07
2018-05-26T23:58:47.585Z,18.71
